Terminal Aerodrome Forecast
Issued by NWS

Home | Current Version | Previous Version | Text Only | Print | Product List | Glossary On
Versions: 1 2 3 4 5 6 7 8 9 10 11 12 13 14 15 16 17 18 19 20 21 22 23 24 25 26 27 28 29 30 31 32 33
387
FTUS45 KPIH 221120
TAFSUN
TAF
KSUN 221120Z 2212/2312 31007KT P6SM SCT120
     FM221900 17006KT P6SM SCT040
     FM230300 32007KT P6SM SCT050 BKN120
      AMD LTD TO CLD VIS AND WIND TIL 221400=

USA.gov is the U.S. government's official web portal to all federal, state and local government web resources and services.